sensor_id;sensor_type;location;lat;lon;timestamp;P1;durP1;ratioP1;P2;durP2;ratioP2
69419;SDS011;71621;52.030;113.516;2023-11-21T00:00:23;13.57;;;3.22;;
69419;SDS011;71621;52.030;113.516;2023-11-21T00:03:26;24.58;;;3.22;;
69419;SDS011;71621;52.030;113.516;2023-11-21T00:06:31;12.82;;;3.05;;
69419;SDS011;71621;52.030;113.516;2023-11-21T00:09:34;6.77;;;2.20;;
69419;SDS011;71621;52.030;113.516;2023-11-21T00:12:39;15.55;;;2.72;;
69419;SDS011;71621;52.030;113.516;2023-11-21T00:15:44;31.90;;;3.13;;
69419;SDS011;71621;52.030;113.516;2023-11-21T00:18:48;18.65;;;4.60;;
69419;SDS011;71621;52.030;113.516;2023-11-21T00:21:51;25.87;;;5.60;;
69419;SDS011;71621;52.030;113.516;2023-11-21T00:24:55;24.75;;;6.35;;
69419;SDS011;71621;52.030;113.516;2023-11-21T00:27:58;19.42;;;5.45;;
69419;SDS011;71621;52.030;113.516;2023-11-21T00:31:04;27.48;;;5.32;;
69419;SDS011;71621;52.030;113.516;2023-11-21T00:34:07;19.77;;;4.77;;
69419;SDS011;71621;52.030;113.516;2023-11-21T00:37:11;88.57;;;28.33;;
69419;SDS011;71621;52.030;113.516;2023-11-21T00:40:16;50.25;;;12.57;;
69419;SDS011;71621;52.030;113.516;2023-11-21T00:43:23;24.40;;;5.78;;
69419;SDS011;71621;52.030;113.516;2023-11-21T00:46:27;29.70;;;8.53;;
69419;SDS011;71621;52.030;113.516;2023-11-21T00:49:32;23.77;;;5.90;;
69419;SDS011;71621;52.030;113.516;2023-11-21T00:52:35;26.58;;;7.15;;
69419;SDS011;71621;52.030;113.516;2023-11-21T00:55:39;23.33;;;5.65;;
69419;SDS011;71621;52.030;113.516;2023-11-21T00:58:42;182.93;;;51.00;;
69419;SDS011;71621;52.030;113.516;2023-11-21T01:01:47;45.50;;;14.02;;
69419;SDS011;71621;52.030;113.516;2023-11-21T01:04:51;19.35;;;5.40;;
69419;SDS011;71621;52.030;113.516;2023-11-21T01:07:55;58.35;;;13.25;;
69419;SDS011;71621;52.030;113.516;2023-11-21T01:10:58;15.10;;;4.38;;
69419;SDS011;71621;52.030;113.516;2023-11-21T01:14:02;38.37;;;6.40;;
69419;SDS011;71621;52.030;113.516;2023-11-21T01:17:07;15.05;;;4.82;;
69419;SDS011;71621;52.030;113.516;2023-11-21T01:20:11;35.58;;;9.60;;
69419;SDS011;71621;52.030;113.516;2023-11-21T01:23:16;13.63;;;4.43;;
69419;SDS011;71621;52.030;113.516;2023-11-21T01:26:20;18.57;;;4.83;;
69419;SDS011;71621;52.030;113.516;2023-11-21T01:29:23;13.68;;;4.07;;
69419;SDS011;71621;52.030;113.516;2023-11-21T01:32:27;15.75;;;4.40;;
69419;SDS011;71621;52.030;113.516;2023-11-21T01:35:31;21.33;;;6.63;;
69419;SDS011;71621;52.030;113.516;2023-11-21T01:38:34;13.83;;;4.53;;
69419;SDS011;71621;52.030;113.516;2023-11-21T01:41:38;18.58;;;4.60;;
69419;SDS011;71621;52.030;113.516;2023-11-21T01:44:42;9.23;;;2.42;;
69419;SDS011;71621;52.030;113.516;2023-11-21T01:47:46;7.63;;;2.00;;
69419;SDS011;71621;52.030;113.516;2023-11-21T01:50:50;8.63;;;2.40;;
69419;SDS011;71621;52.030;113.516;2023-11-21T01:53:54;13.38;;;3.83;;
69419;SDS011;71621;52.030;113.516;2023-11-21T01:56:58;8.43;;;2.58;;
69419;SDS011;71621;52.030;113.516;2023-11-21T02:00:06;16.92;;;3.35;;
69419;SDS011;71621;52.030;113.516;2023-11-21T02:03:19;25.70;;;7.50;;
69419;SDS011;71621;52.030;113.516;2023-11-21T02:06:23;18.10;;;5.35;;
69419;SDS011;71621;52.030;113.516;2023-11-21T02:09:27;29.40;;;4.93;;
69419;SDS011;71621;52.030;113.516;2023-11-21T02:12:32;10.98;;;1.80;;
69419;SDS011;71621;52.030;113.516;2023-11-21T02:15:38;5.70;;;1.60;;
69419;SDS011;71621;52.030;113.516;2023-11-21T02:18:41;9.15;;;2.40;;
69419;SDS011;71621;52.030;113.516;2023-11-21T02:21:45;16.33;;;2.55;;
69419;SDS011;71621;52.030;113.516;2023-11-21T02:24:51;25.23;;;3.45;;
69419;SDS011;71621;52.030;113.516;2023-11-21T02:27:55;22.17;;;5.00;;
69419;SDS011;71621;52.030;113.516;2023-11-21T02:30:59;18.85;;;3.75;;
69419;SDS011;71621;52.030;113.516;2023-11-21T02:34:05;12.70;;;2.40;;
69419;SDS011;71621;52.030;113.516;2023-11-21T02:37:09;8.30;;;2.28;;
69419;SDS011;71621;52.030;113.516;2023-11-21T02:40:13;6.00;;;1.52;;
69419;SDS011;71621;52.030;113.516;2023-11-21T02:43:20;5.80;;;1.17;;
69419;SDS011;71621;52.030;113.516;2023-11-21T02:46:24;5.95;;;1.20;;
69419;SDS011;71621;52.030;113.516;2023-11-21T02:49:28;12.43;;;1.70;;
69419;SDS011;71621;52.030;113.516;2023-11-21T02:52:32;15.73;;;2.00;;
69419;SDS011;71621;52.030;113.516;2023-11-21T02:55:36;7.50;;;1.40;;
69419;SDS011;71621;52.030;113.516;2023-11-21T02:58:42;12.98;;;2.35;;
69419;SDS011;71621;52.030;113.516;2023-11-21T03:01:47;10.82;;;2.22;;
69419;SDS011;71621;52.030;113.516;2023-11-21T03:04:52;10.02;;;2.03;;
69419;SDS011;71621;52.030;113.516;2023-11-21T03:07:56;9.17;;;1.60;;
69419;SDS011;71621;52.030;113.516;2023-11-21T03:11:00;10.05;;;2.05;;
69419;SDS011;71621;52.030;113.516;2023-11-21T03:14:05;17.92;;;3.08;;
69419;SDS011;71621;52.030;113.516;2023-11-21T03:17:09;9.88;;;2.65;;
69419;SDS011;71621;52.030;113.516;2023-11-21T03:20:13;11.30;;;3.42;;
69419;SDS011;71621;52.030;113.516;2023-11-21T03:23:16;15.80;;;2.83;;
69419;SDS011;71621;52.030;113.516;2023-11-21T03:26:20;11.82;;;3.00;;
69419;SDS011;71621;52.030;113.516;2023-11-21T03:29:23;13.18;;;2.15;;
69419;SDS011;71621;52.030;113.516;2023-11-21T03:32:27;9.48;;;2.00;;
69419;SDS011;71621;52.030;113.516;2023-11-21T03:35:30;19.05;;;2.55;;
69419;SDS011;71621;52.030;113.516;2023-11-21T03:38:34;9.33;;;1.97;;
69419;SDS011;71621;52.030;113.516;2023-11-21T03:41:37;7.93;;;1.70;;
69419;SDS011;71621;52.030;113.516;2023-11-21T03:44:41;8.40;;;1.80;;
69419;SDS011;71621;52.030;113.516;2023-11-21T03:47:45;7.32;;;1.90;;
69419;SDS011;71621;52.030;113.516;2023-11-21T03:50:49;18.35;;;2.00;;
69419;SDS011;71621;52.030;113.516;2023-11-21T03:53:52;8.00;;;1.37;;
69419;SDS011;71621;52.030;113.516;2023-11-21T03:56:56;6.65;;;1.30;;
69419;SDS011;71621;52.030;113.516;2023-11-21T04:00:00;6.55;;;1.13;;
69419;SDS011;71621;52.030;113.516;2023-11-21T04:03:12;4.50;;;0.88;;
69419;SDS011;71621;52.030;113.516;2023-11-21T04:06:17;3.83;;;0.70;;
69419;SDS011;71621;52.030;113.516;2023-11-21T04:09:21;3.77;;;0.63;;
69419;SDS011;71621;52.030;113.516;2023-11-21T04:12:27;6.82;;;1.00;;
69419;SDS011;71621;52.030;113.516;2023-11-21T04:15:31;8.23;;;1.05;;
69419;SDS011;71621;52.030;113.516;2023-11-21T04:18:38;15.55;;;1.80;;
69419;SDS011;71621;52.030;113.516;2023-11-21T04:21:42;14.18;;;2.15;;
69419;SDS011;71621;52.030;113.516;2023-11-21T04:24:45;6.07;;;1.50;;
69419;SDS011;71621;52.030;113.516;2023-11-21T04:27:49;7.65;;;2.33;;
69419;SDS011;71621;52.030;113.516;2023-11-21T04:30:53;13.55;;;3.05;;
69419;SDS011;71621;52.030;113.516;2023-11-21T04:33:56;8.73;;;2.85;;
69419;SDS011;71621;52.030;113.516;2023-11-21T04:37:00;7.10;;;1.50;;
69419;SDS011;71621;52.030;113.516;2023-11-21T04:40:04;4.17;;;1.10;;
69419;SDS011;71621;52.030;113.516;2023-11-21T04:43:11;5.00;;;0.98;;
69419;SDS011;71621;52.030;113.516;2023-11-21T04:46:15;4.03;;;0.95;;
69419;SDS011;71621;52.030;113.516;2023-11-21T04:49:18;4.78;;;1.00;;
69419;SDS011;71621;52.030;113.516;2023-11-21T04:52:22;16.13;;;1.48;;
69419;SDS011;71621;52.030;113.516;2023-11-21T04:55:25;7.37;;;1.20;;
69419;SDS011;71621;52.030;113.516;2023-11-21T04:58:31;11.57;;;1.80;;
69419;SDS011;71621;52.030;113.516;2023-11-21T05:01:35;6.90;;;1.40;;
69419;SDS011;71621;52.030;113.516;2023-11-21T05:04:39;4.95;;;0.90;;
69419;SDS011;71621;52.030;113.516;2023-11-21T05:07:45;4.22;;;0.93;;
69419;SDS011;71621;52.030;113.516;2023-11-21T05:10:48;4.73;;;0.70;;
69419;SDS011;71621;52.030;113.516;2023-11-21T05:13:52;5.07;;;0.80;;
69419;SDS011;71621;52.030;113.516;2023-11-21T05:16:58;3.97;;;1.05;;
69419;SDS011;71621;52.030;113.516;2023-11-21T05:20:02;3.88;;;1.02;;
69419;SDS011;71621;52.030;113.516;2023-11-21T05:23:07;21.98;;;8.20;;
69419;SDS011;71621;52.030;113.516;2023-11-21T05:26:10;16.27;;;4.07;;
69419;SDS011;71621;52.030;113.516;2023-11-21T05:29:14;13.30;;;3.00;;
69419;SDS011;71621;52.030;113.516;2023-11-21T05:32:17;12.30;;;3.00;;
69419;SDS011;71621;52.030;113.516;2023-11-21T05:35:21;18.20;;;4.05;;
69419;SDS011;71621;52.030;113.516;2023-11-21T05:38:24;13.55;;;3.03;;
69419;SDS011;71621;52.030;113.516;2023-11-21T05:41:28;12.83;;;2.83;;
69419;SDS011;71621;52.030;113.516;2023-11-21T05:44:31;14.07;;;3.70;;
69419;SDS011;71621;52.030;113.516;2023-11-21T05:47:39;35.13;;;12.43;;
69419;SDS011;71621;52.030;113.516;2023-11-21T05:50:44;22.67;;;4.28;;
69419;SDS011;71621;52.030;113.516;2023-11-21T05:53:47;51.30;;;12.13;;
69419;SDS011;71621;52.030;113.516;2023-11-21T05:56:51;8.40;;;2.53;;
69419;SDS011;71621;52.030;113.516;2023-11-21T05:59:56;6.93;;;2.15;;
69419;SDS011;71621;52.030;113.516;2023-11-21T06:02:59;4.18;;;1.20;;
69419;SDS011;71621;52.030;113.516;2023-11-21T06:06:03;6.72;;;1.08;;
69419;SDS011;71621;52.030;113.516;2023-11-21T06:09:07;4.60;;;0.90;;
69419;SDS011;71621;52.030;113.516;2023-11-21T06:12:15;4.50;;;1.10;;
69419;SDS011;71621;52.030;113.516;2023-11-21T06:15:18;4.40;;;0.90;;
69419;SDS011;71621;52.030;113.516;2023-11-21T06:18:23;4.97;;;1.05;;
69419;SDS011;71621;52.030;113.516;2023-11-21T06:21:27;6.95;;;1.42;;
69419;SDS011;71621;52.030;113.516;2023-11-21T06:24:31;6.60;;;2.30;;
69419;SDS011;71621;52.030;113.516;2023-11-21T06:27:37;13.23;;;3.37;;
69419;SDS011;71621;52.030;113.516;2023-11-21T06:30:42;8.80;;;2.28;;
69419;SDS011;71621;52.030;113.516;2023-11-21T06:33:47;25.20;;;6.45;;
69419;SDS011;71621;52.030;113.516;2023-11-21T06:36:51;44.88;;;13.77;;
69419;SDS011;71621;52.030;113.516;2023-11-21T06:39:56;54.80;;;20.20;;
69419;SDS011;71621;52.030;113.516;2023-11-21T06:43:01;33.27;;;9.50;;
69419;SDS011;71621;52.030;113.516;2023-11-21T06:46:04;27.70;;;8.20;;
69419;SDS011;71621;52.030;113.516;2023-11-21T06:49:08;129.48;;;37.95;;
69419;SDS011;71621;52.030;113.516;2023-11-21T06:52:11;24.83;;;6.97;;
69419;SDS011;71621;52.030;113.516;2023-11-21T06:55:15;30.00;;;8.68;;
69419;SDS011;71621;52.030;113.516;2023-11-21T06:58:19;26.27;;;6.97;;
69419;SDS011;71621;52.030;113.516;2023-11-21T07:01:23;13.52;;;3.33;;
69419;SDS011;71621;52.030;113.516;2023-11-21T07:04:27;166.93;;;50.72;;
69419;SDS011;71621;52.030;113.516;2023-11-21T07:07:30;45.90;;;14.35;;
69419;SDS011;71621;52.030;113.516;2023-11-21T07:10:34;23.27;;;7.20;;
69419;SDS011;71621;52.030;113.516;2023-11-21T07:13:39;13.23;;;6.40;;
69419;SDS011;71621;52.030;113.516;2023-11-21T07:16:43;13.23;;;4.05;;
69419;SDS011;71621;52.030;113.516;2023-11-21T07:19:46;14.20;;;5.45;;
69419;SDS011;71621;52.030;113.516;2023-11-21T07:22:50;17.42;;;3.03;;
69419;SDS011;71621;52.030;113.516;2023-11-21T07:25:53;15.57;;;3.55;;
69419;SDS011;71621;52.030;113.516;2023-11-21T07:28:57;12.10;;;2.57;;
69419;SDS011;71621;52.030;113.516;2023-11-21T07:32:01;18.95;;;3.53;;
69419;SDS011;71621;52.030;113.516;2023-11-21T07:35:05;22.83;;;7.93;;
69419;SDS011;71621;52.030;113.516;2023-11-21T07:38:10;25.30;;;7.70;;
69419;SDS011;71621;52.030;113.516;2023-11-21T07:41:13;29.45;;;9.48;;
69419;SDS011;71621;52.030;113.516;2023-11-21T07:44:32;40.87;;;9.27;;
69419;SDS011;71621;52.030;113.516;2023-11-21T07:47:35;26.75;;;8.93;;
69419;SDS011;71621;52.030;113.516;2023-11-21T07:50:39;26.92;;;6.47;;
69419;SDS011;71621;52.030;113.516;2023-11-21T07:53:42;25.40;;;6.70;;
69419;SDS011;71621;52.030;113.516;2023-11-21T07:56:46;49.25;;;18.38;;
69419;SDS011;71621;52.030;113.516;2023-11-21T07:59:50;30.07;;;8.77;;
69419;SDS011;71621;52.030;113.516;2023-11-21T08:02:56;56.63;;;17.42;;
69419;SDS011;71621;52.030;113.516;2023-11-21T08:06:00;45.95;;;14.45;;
69419;SDS011;71621;52.030;113.516;2023-11-21T08:09:06;43.30;;;12.10;;
69419;SDS011;71621;52.030;113.516;2023-11-21T08:12:11;39.97;;;10.00;;
69419;SDS011;71621;52.030;113.516;2023-11-21T08:15:14;43.10;;;10.37;;
69419;SDS011;71621;52.030;113.516;2023-11-21T08:18:18;28.65;;;8.13;;
69419;SDS011;71621;52.030;113.516;2023-11-21T08:21:21;35.85;;;8.60;;
69419;SDS011;71621;52.030;113.516;2023-11-21T08:24:31;37.40;;;8.75;;
69419;SDS011;71621;52.030;113.516;2023-11-21T08:27:35;36.47;;;9.45;;
69419;SDS011;71621;52.030;113.516;2023-11-21T08:30:38;34.63;;;9.70;;
69419;SDS011;71621;52.030;113.516;2023-11-21T08:33:42;45.88;;;9.75;;
69419;SDS011;71621;52.030;113.516;2023-11-21T08:36:45;31.17;;;8.88;;
69419;SDS011;71621;52.030;113.516;2023-11-21T08:39:49;42.65;;;8.48;;
69419;SDS011;71621;52.030;113.516;2023-11-21T08:42:52;46.08;;;8.43;;
69419;SDS011;71621;52.030;113.516;2023-11-21T08:45:57;34.03;;;7.37;;
69419;SDS011;71621;52.030;113.516;2023-11-21T08:49:01;32.25;;;6.88;;
69419;SDS011;71621;52.030;113.516;2023-11-21T08:52:05;26.58;;;7.07;;
69419;SDS011;71621;52.030;113.516;2023-11-21T08:55:09;31.10;;;7.85;;
69419;SDS011;71621;52.030;113.516;2023-11-21T08:58:15;38.58;;;9.55;;
69419;SDS011;71621;52.030;113.516;2023-11-21T09:01:18;33.10;;;9.20;;
69419;SDS011;71621;52.030;113.516;2023-11-21T09:04:22;34.60;;;8.75;;
69419;SDS011;71621;52.030;113.516;2023-11-21T09:07:26;34.08;;;9.90;;
69419;SDS011;71621;52.030;113.516;2023-11-21T09:10:29;48.30;;;11.80;;
69419;SDS011;71621;52.030;113.516;2023-11-21T09:13:33;94.93;;;19.25;;
69419;SDS011;71621;52.030;113.516;2023-11-21T09:16:37;85.40;;;20.27;;
69419;SDS011;71621;52.030;113.516;2023-11-21T09:19:41;80.75;;;23.15;;
69419;SDS011;71621;52.030;113.516;2023-11-21T09:22:48;53.13;;;16.65;;
69419;SDS011;71621;52.030;113.516;2023-11-21T09:25:51;175.73;;;77.55;;
69419;SDS011;71621;52.030;113.516;2023-11-21T09:28:59;102.07;;;31.70;;
69419;SDS011;71621;52.030;113.516;2023-11-21T09:32:05;92.43;;;32.43;;
69419;SDS011;71621;52.030;113.516;2023-11-21T09:35:11;78.95;;;24.05;;
69419;SDS011;71621;52.030;113.516;2023-11-21T09:38:17;81.28;;;27.98;;
69419;SDS011;71621;52.030;113.516;2023-11-21T09:41:29;108.28;;;26.52;;
69419;SDS011;71621;52.030;113.516;2023-11-21T09:44:56;130.15;;;32.40;;
69419;SDS011;71621;52.030;113.516;2023-11-21T09:48:07;115.70;;;28.67;;
69419;SDS011;71621;52.030;113.516;2023-11-21T09:51:14;98.93;;;26.50;;
69419;SDS011;71621;52.030;113.516;2023-11-21T09:54:18;107.95;;;27.58;;
69419;SDS011;71621;52.030;113.516;2023-11-21T09:57:24;78.85;;;22.45;;
69419;SDS011;71621;52.030;113.516;2023-11-21T10:00:28;70.55;;;18.73;;
69419;SDS011;71621;52.030;113.516;2023-11-21T10:03:35;226.50;;;54.67;;
69419;SDS011;71621;52.030;113.516;2023-11-21T10:06:41;291.33;;;76.53;;
69419;SDS011;71621;52.030;113.516;2023-11-21T10:09:45;115.63;;;31.15;;
69419;SDS011;71621;52.030;113.516;2023-11-21T10:12:50;205.23;;;59.95;;
69419;SDS011;71621;52.030;113.516;2023-11-21T10:16:00;114.78;;;32.50;;
69419;SDS011;71621;52.030;113.516;2023-11-21T10:19:09;89.00;;;25.23;;
69419;SDS011;71621;52.030;113.516;2023-11-21T10:22:16;117.43;;;38.10;;
69419;SDS011;71621;52.030;113.516;2023-11-21T10:25:22;186.75;;;65.57;;
69419;SDS011;71621;52.030;113.516;2023-11-21T10:28:25;199.18;;;68.75;;
69419;SDS011;71621;52.030;113.516;2023-11-21T10:31:30;155.93;;;50.97;;
69419;SDS011;71621;52.030;113.516;2023-11-21T10:34:34;128.32;;;43.60;;
69419;SDS011;71621;52.030;113.516;2023-11-21T10:37:38;126.38;;;37.38;;
69419;SDS011;71621;52.030;113.516;2023-11-21T10:40:43;89.88;;;28.13;;
69419;SDS011;71621;52.030;113.516;2023-11-21T10:43:49;145.20;;;49.42;;
69419;SDS011;71621;52.030;113.516;2023-11-21T10:46:59;151.43;;;48.33;;
69419;SDS011;71621;52.030;113.516;2023-11-21T10:50:04;122.15;;;38.38;;
69419;SDS011;71621;52.030;113.516;2023-11-21T10:53:09;100.22;;;33.72;;
69419;SDS011;71621;52.030;113.516;2023-11-21T10:56:15;143.85;;;41.88;;
69419;SDS011;71621;52.030;113.516;2023-11-21T10:59:20;160.02;;;40.47;;
69419;SDS011;71621;52.030;113.516;2023-11-21T11:02:27;123.87;;;34.97;;
69419;SDS011;71621;52.030;113.516;2023-11-21T11:05:35;128.93;;;35.30;;
69419;SDS011;71621;52.030;113.516;2023-11-21T11:08:39;139.20;;;35.95;;
69419;SDS011;71621;52.030;113.516;2023-11-21T11:11:43;140.07;;;42.63;;
69419;SDS011;71621;52.030;113.516;2023-11-21T11:14:48;138.70;;;39.67;;
69419;SDS011;71621;52.030;113.516;2023-11-21T11:17:52;146.00;;;45.15;;
69419;SDS011;71621;52.030;113.516;2023-11-21T11:21:37;171.27;;;45.13;;
69419;SDS011;71621;52.030;113.516;2023-11-21T11:24:46;128.48;;;41.58;;
69419;SDS011;71621;52.030;113.516;2023-11-21T11:28:03;145.60;;;40.05;;
69419;SDS011;71621;52.030;113.516;2023-11-21T11:35:01;133.85;;;38.50;;
69419;SDS011;71621;52.030;113.516;2023-11-21T11:38:10;120.10;;;37.10;;
69419;SDS011;71621;52.030;113.516;2023-11-21T11:41:19;134.00;;;41.50;;
69419;SDS011;71621;52.030;113.516;2023-11-21T11:44:50;75.60;;;30.53;;
69419;SDS011;71621;52.030;113.516;2023-11-21T11:47:58;87.50;;;28.58;;
69419;SDS011;71621;52.030;113.516;2023-11-21T11:54:07;80.20;;;22.17;;
69419;SDS011;71621;52.030;113.516;2023-11-21T11:57:11;69.63;;;26.87;;
69419;SDS011;71621;52.030;113.516;2023-11-21T12:03:25;155.88;;;42.33;;
69419;SDS011;71621;52.030;113.516;2023-11-21T12:06:34;170.10;;;43.30;;
69419;SDS011;71621;52.030;113.516;2023-11-21T12:09:39;76.53;;;24.33;;
69419;SDS011;71621;52.030;113.516;2023-11-21T12:12:43;76.82;;;23.92;;
69419;SDS011;71621;52.030;113.516;2023-11-21T12:15:50;102.88;;;29.50;;
69419;SDS011;71621;52.030;113.516;2023-11-21T12:18:54;141.15;;;41.80;;
69419;SDS011;71621;52.030;113.516;2023-11-21T12:21:59;131.30;;;37.27;;
69419;SDS011;71621;52.030;113.516;2023-11-21T12:25:02;190.95;;;54.28;;
69419;SDS011;71621;52.030;113.516;2023-11-21T12:28:06;207.02;;;61.83;;
69419;SDS011;71621;52.030;113.516;2023-11-21T12:31:10;216.75;;;62.35;;
69419;SDS011;71621;52.030;113.516;2023-11-21T12:34:23;224.43;;;61.28;;
69419;SDS011;71621;52.030;113.516;2023-11-21T12:37:27;228.20;;;60.97;;
69419;SDS011;71621;52.030;113.516;2023-11-21T12:40:31;269.85;;;77.38;;
69419;SDS011;71621;52.030;113.516;2023-11-21T12:43:34;326.60;;;94.68;;
69419;SDS011;71621;52.030;113.516;2023-11-21T12:46:41;223.38;;;68.40;;
69419;SDS011;71621;52.030;113.516;2023-11-21T12:49:45;201.48;;;58.22;;
69419;SDS011;71621;52.030;113.516;2023-11-21T12:52:50;192.35;;;55.95;;
69419;SDS011;71621;52.030;113.516;2023-11-21T12:55:56;170.43;;;49.75;;
69419;SDS011;71621;52.030;113.516;2023-11-21T12:59:00;194.98;;;59.55;;
69419;SDS011;71621;52.030;113.516;2023-11-21T13:02:08;189.35;;;57.38;;
69419;SDS011;71621;52.030;113.516;2023-11-21T13:05:11;163.15;;;50.75;;
69419;SDS011;71621;52.030;113.516;2023-11-21T13:08:24;153.95;;;49.65;;
69419;SDS011;71621;52.030;113.516;2023-11-21T13:11:29;169.20;;;54.90;;
69419;SDS011;71621;52.030;113.516;2023-11-21T13:14:37;171.55;;;54.97;;
69419;SDS011;71621;52.030;113.516;2023-11-21T13:17:40;211.90;;;76.25;;
69419;SDS011;71621;52.030;113.516;2023-11-21T13:20:44;212.68;;;69.97;;
69419;SDS011;71621;52.030;113.516;2023-11-21T13:23:49;166.13;;;58.23;;
69419;SDS011;71621;52.030;113.516;2023-11-21T13:26:55;168.05;;;61.83;;
69419;SDS011;71621;52.030;113.516;2023-11-21T13:30:00;151.20;;;51.17;;
69419;SDS011;71621;52.030;113.516;2023-11-21T13:33:04;156.93;;;47.67;;
69419;SDS011;71621;52.030;113.516;2023-11-21T13:36:11;136.53;;;48.33;;
69419;SDS011;71621;52.030;113.516;2023-11-21T13:39:17;148.55;;;45.70;;
69419;SDS011;71621;52.030;113.516;2023-11-21T13:42:21;135.32;;;44.47;;
69419;SDS011;71621;52.030;113.516;2023-11-21T13:45:27;131.18;;;42.30;;
69419;SDS011;71621;52.030;113.516;2023-11-21T13:48:33;127.87;;;39.73;;
69419;SDS011;71621;52.030;113.516;2023-11-21T13:51:51;138.07;;;43.78;;
69419;SDS011;71621;52.030;113.516;2023-11-21T13:54:57;126.22;;;40.97;;
69419;SDS011;71621;52.030;113.516;2023-11-21T13:58:03;151.20;;;48.47;;
69419;SDS011;71621;52.030;113.516;2023-11-21T14:01:12;158.70;;;46.63;;
69419;SDS011;71621;52.030;113.516;2023-11-21T14:04:31;137.95;;;45.35;;
69419;SDS011;71621;52.030;113.516;2023-11-21T14:07:35;144.88;;;43.30;;
69419;SDS011;71621;52.030;113.516;2023-11-21T14:10:39;125.95;;;39.28;;
69419;SDS011;71621;52.030;113.516;2023-11-21T14:13:53;116.73;;;41.10;;
69419;SDS011;71621;52.030;113.516;2023-11-21T14:16:57;110.95;;;37.53;;
69419;SDS011;71621;52.030;113.516;2023-11-21T14:20:02;125.22;;;38.25;;
69419;SDS011;71621;52.030;113.516;2023-11-21T14:23:07;107.57;;;32.53;;
69419;SDS011;71621;52.030;113.516;2023-11-21T14:26:13;95.30;;;32.30;;
69419;SDS011;71621;52.030;113.516;2023-11-21T14:29:18;115.10;;;33.50;;
69419;SDS011;71621;52.030;113.516;2023-11-21T14:32:23;122.95;;;36.20;;
69419;SDS011;71621;52.030;113.516;2023-11-21T14:35:28;116.20;;;36.85;;
69419;SDS011;71621;52.030;113.516;2023-11-21T14:38:35;123.07;;;36.17;;
69419;SDS011;71621;52.030;113.516;2023-11-21T14:41:42;126.60;;;40.33;;
69419;SDS011;71621;52.030;113.516;2023-11-21T14:44:47;154.85;;;45.10;;
69419;SDS011;71621;52.030;113.516;2023-11-21T14:47:51;137.32;;;41.13;;
69419;SDS011;71621;52.030;113.516;2023-11-21T14:51:09;126.13;;;39.63;;
69419;SDS011;71621;52.030;113.516;2023-11-21T14:54:31;131.02;;;38.88;;
69419;SDS011;71621;52.030;113.516;2023-11-21T14:57:41;115.75;;;37.47;;
69419;SDS011;71621;52.030;113.516;2023-11-21T15:00:53;130.40;;;38.45;;
69419;SDS011;71621;52.030;113.516;2023-11-21T15:04:01;121.07;;;40.37;;
69419;SDS011;71621;52.030;113.516;2023-11-21T15:07:05;136.80;;;43.72;;
69419;SDS011;71621;52.030;113.516;2023-11-21T15:10:09;152.77;;;46.28;;
69419;SDS011;71621;52.030;113.516;2023-11-21T15:13:18;166.38;;;50.75;;
69419;SDS011;71621;52.030;113.516;2023-11-21T15:16:22;181.47;;;53.67;;
69419;SDS011;71621;52.030;113.516;2023-11-21T15:19:26;218.23;;;69.38;;
69419;SDS011;71621;52.030;113.516;2023-11-21T15:22:31;213.13;;;68.82;;
69419;SDS011;71621;52.030;113.516;2023-11-21T15:25:34;231.20;;;73.75;;
69419;SDS011;71621;52.030;113.516;2023-11-21T15:28:38;228.95;;;72.80;;
69419;SDS011;71621;52.030;113.516;2023-11-21T15:31:42;228.30;;;68.82;;
69419;SDS011;71621;52.030;113.516;2023-11-21T15:34:51;250.35;;;76.07;;
69419;SDS011;71621;52.030;113.516;2023-11-21T15:37:55;250.83;;;75.23;;
69419;SDS011;71621;52.030;113.516;2023-11-21T15:41:02;247.07;;;74.35;;
69419;SDS011;71621;52.030;113.516;2023-11-21T15:44:06;250.45;;;77.45;;
69419;SDS011;71621;52.030;113.516;2023-11-21T15:47:13;257.60;;;80.60;;
69419;SDS011;71621;52.030;113.516;2023-11-21T15:50:16;265.17;;;79.97;;
69419;SDS011;71621;52.030;113.516;2023-11-21T15:53:20;246.45;;;75.63;;
69419;SDS011;71621;52.030;113.516;2023-11-21T15:56:24;298.38;;;90.15;;
69419;SDS011;71621;52.030;113.516;2023-11-21T15:59:27;348.83;;;100.18;;
69419;SDS011;71621;52.030;113.516;2023-11-21T16:02:34;357.13;;;104.30;;
69419;SDS011;71621;52.030;113.516;2023-11-21T16:05:38;307.00;;;94.85;;
69419;SDS011;71621;52.030;113.516;2023-11-21T16:08:43;283.38;;;85.65;;
69419;SDS011;71621;52.030;113.516;2023-11-21T16:11:46;299.13;;;91.20;;
69419;SDS011;71621;52.030;113.516;2023-11-21T16:14:51;277.38;;;84.38;;
69419;SDS011;71621;52.030;113.516;2023-11-21T16:17:54;274.38;;;83.85;;
69419;SDS011;71621;52.030;113.516;2023-11-21T16:20:58;266.73;;;82.80;;
69419;SDS011;71621;52.030;113.516;2023-11-21T16:24:02;262.20;;;79.50;;
69419;SDS011;71621;52.030;113.516;2023-11-21T16:27:06;265.77;;;75.90;;
69419;SDS011;71621;52.030;113.516;2023-11-21T16:30:12;280.50;;;82.57;;
69419;SDS011;71621;52.030;113.516;2023-11-21T16:33:16;267.35;;;78.35;;
69419;SDS011;71621;52.030;113.516;2023-11-21T16:36:20;264.10;;;81.67;;
69419;SDS011;71621;52.030;113.516;2023-11-21T16:39:24;259.15;;;75.75;;
69419;SDS011;71621;52.030;113.516;2023-11-21T16:42:27;261.67;;;78.57;;
69419;SDS011;71621;52.030;113.516;2023-11-21T16:45:33;248.48;;;71.80;;
69419;SDS011;71621;52.030;113.516;2023-11-21T16:48:36;247.13;;;75.70;;
69419;SDS011;71621;52.030;113.516;2023-11-21T16:51:40;246.40;;;75.68;;
69419;SDS011;71621;52.030;113.516;2023-11-21T16:54:45;246.20;;;71.97;;
69419;SDS011;71621;52.030;113.516;2023-11-21T16:57:48;234.63;;;70.85;;
69419;SDS011;71621;52.030;113.516;2023-11-21T17:00:53;227.43;;;67.17;;
69419;SDS011;71621;52.030;113.516;2023-11-21T17:03:57;210.48;;;64.53;;
69419;SDS011;71621;52.030;113.516;2023-11-21T17:07:01;218.23;;;66.53;;
69419;SDS011;71621;52.030;113.516;2023-11-21T17:10:05;221.77;;;64.65;;
69419;SDS011;71621;52.030;113.516;2023-11-21T17:13:11;231.33;;;67.80;;
69419;SDS011;71621;52.030;113.516;2023-11-21T17:16:16;215.70;;;68.43;;
69419;SDS011;71621;52.030;113.516;2023-11-21T17:19:19;199.50;;;57.60;;
69419;SDS011;71621;52.030;113.516;2023-11-21T17:22:23;194.52;;;59.05;;
69419;SDS011;71621;52.030;113.516;2023-11-21T17:25:26;185.80;;;55.37;;
69419;SDS011;71621;52.030;113.516;2023-11-21T17:28:30;154.15;;;49.08;;
69419;SDS011;71621;52.030;113.516;2023-11-21T17:31:33;157.75;;;49.40;;
69419;SDS011;71621;52.030;113.516;2023-11-21T17:34:38;141.77;;;42.13;;
69419;SDS011;71621;52.030;113.516;2023-11-21T17:37:41;139.73;;;40.30;;
69419;SDS011;71621;52.030;113.516;2023-11-21T17:40:45;111.88;;;34.40;;
69419;SDS011;71621;52.030;113.516;2023-11-21T17:43:49;120.38;;;34.95;;